sensor_id;sensor_type;location;lat;lon;timestamp;P1;durP1;ratioP1;P2;durP2;ratioP2
5493;SDS011;2769;49.864;8.656;2022-08-23T00:00:24;3.33;;;2.43;;
5493;SDS011;2769;49.864;8.656;2022-08-23T00:03:15;2.67;;;2.47;;
5493;SDS011;2769;49.864;8.656;2022-08-23T00:06:02;2.67;;;2.47;;
5493;SDS011;2769;49.864;8.656;2022-08-23T00:08:49;2.70;;;2.50;;
5493;SDS011;2769;49.864;8.656;2022-08-23T00:11:39;2.53;;;2.20;;
5493;SDS011;2769;49.864;8.656;2022-08-23T00:14:29;2.53;;;2.30;;
5493;SDS011;2769;49.864;8.656;2022-08-23T00:17:20;3.53;;;2.70;;
5493;SDS011;2769;49.864;8.656;2022-08-23T00:20:20;2.43;;;2.23;;
5493;SDS011;2769;49.864;8.656;2022-08-23T00:23:06;2.60;;;2.50;;
5493;SDS011;2769;49.864;8.656;2022-08-23T00:25:52;2.43;;;2.10;;
5493;SDS011;2769;49.864;8.656;2022-08-23T00:28:39;3.30;;;2.53;;
5493;SDS011;2769;49.864;8.656;2022-08-23T00:31:26;3.30;;;2.20;;
5493;SDS011;2769;49.864;8.656;2022-08-23T00:34:12;6.40;;;2.80;;
5493;SDS011;2769;49.864;8.656;2022-08-23T00:37:00;3.97;;;2.40;;
5493;SDS011;2769;49.864;8.656;2022-08-23T00:39:47;7.57;;;2.60;;
5493;SDS011;2769;49.864;8.656;2022-08-23T00:42:36;2.77;;;2.53;;
5493;SDS011;2769;49.864;8.656;2022-08-23T00:45:46;4.70;;;2.20;;
5493;SDS011;2769;49.864;8.656;2022-08-23T00:48:54;3.30;;;2.80;;
5493;SDS011;2769;49.864;8.656;2022-08-23T00:51:43;2.53;;;2.33;;
5493;SDS011;2769;49.864;8.656;2022-08-23T00:54:39;4.07;;;3.07;;
5493;SDS011;2769;49.864;8.656;2022-08-23T00:57:27;3.77;;;2.63;;
5493;SDS011;2769;49.864;8.656;2022-08-23T01:00:15;3.00;;;2.20;;
5493;SDS011;2769;49.864;8.656;2022-08-23T01:03:04;3.87;;;2.50;;
5493;SDS011;2769;49.864;8.656;2022-08-23T01:05:55;3.00;;;2.67;;
5493;SDS011;2769;49.864;8.656;2022-08-23T01:08:47;3.97;;;2.60;;
5493;SDS011;2769;49.864;8.656;2022-08-23T01:11:39;6.57;;;2.40;;
5493;SDS011;2769;49.864;8.656;2022-08-23T01:14:32;3.50;;;2.30;;
5493;SDS011;2769;49.864;8.656;2022-08-23T01:17:24;4.00;;;2.50;;
5493;SDS011;2769;49.864;8.656;2022-08-23T01:20:16;5.67;;;2.50;;
5493;SDS011;2769;49.864;8.656;2022-08-23T01:23:24;6.43;;;2.57;;
5493;SDS011;2769;49.864;8.656;2022-08-23T01:26:15;3.23;;;2.50;;
5493;SDS011;2769;49.864;8.656;2022-08-23T01:29:06;4.67;;;2.53;;
5493;SDS011;2769;49.864;8.656;2022-08-23T01:31:52;2.33;;;2.20;;
5493;SDS011;2769;49.864;8.656;2022-08-23T01:34:39;4.53;;;2.90;;
5493;SDS011;2769;49.864;8.656;2022-08-23T01:37:35;2.83;;;2.53;;
5493;SDS011;2769;49.864;8.656;2022-08-23T01:40:23;2.80;;;2.33;;
5493;SDS011;2769;49.864;8.656;2022-08-23T01:43:10;7.20;;;2.50;;
5493;SDS011;2769;49.864;8.656;2022-08-23T01:46:05;3.63;;;2.70;;
5493;SDS011;2769;49.864;8.656;2022-08-23T01:48:54;4.70;;;2.60;;
5493;SDS011;2769;49.864;8.656;2022-08-23T01:51:42;6.07;;;2.33;;
5493;SDS011;2769;49.864;8.656;2022-08-23T01:54:29;6.60;;;2.57;;
5493;SDS011;2769;49.864;8.656;2022-08-23T01:57:17;4.13;;;2.50;;
5493;SDS011;2769;49.864;8.656;2022-08-23T02:00:04;5.63;;;2.90;;
5493;SDS011;2769;49.864;8.656;2022-08-23T02:02:51;5.37;;;2.60;;
5493;SDS011;2769;49.864;8.656;2022-08-23T02:05:38;2.73;;;2.53;;
5493;SDS011;2769;49.864;8.656;2022-08-23T02:08:26;4.00;;;2.63;;
5493;SDS011;2769;49.864;8.656;2022-08-23T02:11:32;2.50;;;2.30;;
5493;SDS011;2769;49.864;8.656;2022-08-23T02:14:22;4.93;;;2.77;;
5493;SDS011;2769;49.864;8.656;2022-08-23T02:17:09;4.37;;;2.70;;
5493;SDS011;2769;49.864;8.656;2022-08-23T02:19:55;2.93;;;2.40;;
5493;SDS011;2769;49.864;8.656;2022-08-23T02:22:41;4.63;;;2.77;;
5493;SDS011;2769;49.864;8.656;2022-08-23T02:25:28;4.90;;;2.70;;
5493;SDS011;2769;49.864;8.656;2022-08-23T02:28:15;5.17;;;2.93;;
5493;SDS011;2769;49.864;8.656;2022-08-23T02:31:02;2.97;;;2.33;;
5493;SDS011;2769;49.864;8.656;2022-08-23T02:33:49;4.47;;;2.70;;
5493;SDS011;2769;49.864;8.656;2022-08-23T02:36:54;4.67;;;2.70;;
5493;SDS011;2769;49.864;8.656;2022-08-23T02:39:41;5.40;;;3.07;;
5493;SDS011;2769;49.864;8.656;2022-08-23T02:42:27;7.63;;;3.03;;
5493;SDS011;2769;49.864;8.656;2022-08-23T02:45:14;5.70;;;2.50;;
5493;SDS011;2769;49.864;8.656;2022-08-23T02:48:04;5.93;;;2.33;;
5493;SDS011;2769;49.864;8.656;2022-08-23T02:50:52;2.90;;;2.70;;
5493;SDS011;2769;49.864;8.656;2022-08-23T02:53:44;2.77;;;2.57;;
5493;SDS011;2769;49.864;8.656;2022-08-23T02:56:31;2.50;;;2.30;;
5493;SDS011;2769;49.864;8.656;2022-08-23T02:59:18;2.50;;;2.27;;
5493;SDS011;2769;49.864;8.656;2022-08-23T03:02:05;2.50;;;2.20;;
5493;SDS011;2769;49.864;8.656;2022-08-23T03:04:53;7.73;;;3.13;;
5493;SDS011;2769;49.864;8.656;2022-08-23T03:07:40;2.57;;;2.40;;
5493;SDS011;2769;49.864;8.656;2022-08-23T03:10:27;3.80;;;2.77;;
5493;SDS011;2769;49.864;8.656;2022-08-23T03:13:15;4.73;;;2.80;;
5493;SDS011;2769;49.864;8.656;2022-08-23T03:16:03;2.60;;;2.30;;
5493;SDS011;2769;49.864;8.656;2022-08-23T03:18:50;6.30;;;2.63;;
5493;SDS011;2769;49.864;8.656;2022-08-23T03:21:38;4.03;;;3.23;;
5493;SDS011;2769;49.864;8.656;2022-08-23T03:24:27;3.23;;;2.80;;
5493;SDS011;2769;49.864;8.656;2022-08-23T03:27:14;5.90;;;2.73;;
5493;SDS011;2769;49.864;8.656;2022-08-23T03:30:01;4.53;;;2.80;;
5493;SDS011;2769;49.864;8.656;2022-08-23T03:32:53;5.37;;;2.70;;
5493;SDS011;2769;49.864;8.656;2022-08-23T03:35:40;4.90;;;2.80;;
5493;SDS011;2769;49.864;8.656;2022-08-23T03:38:28;2.70;;;2.53;;
5493;SDS011;2769;49.864;8.656;2022-08-23T03:41:14;2.77;;;2.57;;
5493;SDS011;2769;49.864;8.656;2022-08-23T03:44:01;4.87;;;2.90;;
5493;SDS011;2769;49.864;8.656;2022-08-23T03:46:48;3.53;;;2.90;;
5493;SDS011;2769;49.864;8.656;2022-08-23T03:49:35;3.70;;;2.50;;
5493;SDS011;2769;49.864;8.656;2022-08-23T03:52:21;3.20;;;2.53;;
5493;SDS011;2769;49.864;8.656;2022-08-23T03:55:09;3.80;;;2.93;;
5493;SDS011;2769;49.864;8.656;2022-08-23T03:57:56;4.10;;;2.73;;
5493;SDS011;2769;49.864;8.656;2022-08-23T04:00:42;3.90;;;2.63;;
5493;SDS011;2769;49.864;8.656;2022-08-23T04:03:29;3.93;;;2.67;;
5493;SDS011;2769;49.864;8.656;2022-08-23T04:06:16;6.60;;;2.77;;
5493;SDS011;2769;49.864;8.656;2022-08-23T04:09:03;3.23;;;2.83;;
5493;SDS011;2769;49.864;8.656;2022-08-23T04:11:51;3.23;;;2.87;;
5493;SDS011;2769;49.864;8.656;2022-08-23T04:14:37;3.47;;;3.10;;
5493;SDS011;2769;49.864;8.656;2022-08-23T04:17:24;2.70;;;2.50;;
5493;SDS011;2769;49.864;8.656;2022-08-23T04:20:11;3.67;;;2.43;;
5493;SDS011;2769;49.864;8.656;2022-08-23T04:22:57;3.10;;;2.43;;
5493;SDS011;2769;49.864;8.656;2022-08-23T04:25:43;5.90;;;2.80;;
5493;SDS011;2769;49.864;8.656;2022-08-23T04:28:31;6.57;;;2.60;;
5493;SDS011;2769;49.864;8.656;2022-08-23T04:31:18;3.43;;;3.07;;
5493;SDS011;2769;49.864;8.656;2022-08-23T04:34:06;2.90;;;2.40;;
5493;SDS011;2769;49.864;8.656;2022-08-23T04:36:52;2.77;;;2.57;;
5493;SDS011;2769;49.864;8.656;2022-08-23T04:39:39;4.77;;;2.57;;
5493;SDS011;2769;49.864;8.656;2022-08-23T04:42:43;3.40;;;2.90;;
5493;SDS011;2769;49.864;8.656;2022-08-23T04:45:31;4.20;;;2.67;;
5493;SDS011;2769;49.864;8.656;2022-08-23T04:48:18;4.07;;;2.23;;
5493;SDS011;2769;49.864;8.656;2022-08-23T04:51:05;6.23;;;2.87;;
5493;SDS011;2769;49.864;8.656;2022-08-23T04:53:52;2.97;;;2.60;;
5493;SDS011;2769;49.864;8.656;2022-08-23T04:56:39;4.87;;;2.70;;
5493;SDS011;2769;49.864;8.656;2022-08-23T04:59:27;2.90;;;2.40;;
5493;SDS011;2769;49.864;8.656;2022-08-23T05:02:15;3.23;;;2.90;;
5493;SDS011;2769;49.864;8.656;2022-08-23T05:05:02;3.60;;;3.30;;
5493;SDS011;2769;49.864;8.656;2022-08-23T05:07:49;3.03;;;2.70;;
5493;SDS011;2769;49.864;8.656;2022-08-23T05:10:36;7.50;;;2.97;;
5493;SDS011;2769;49.864;8.656;2022-08-23T05:13:22;5.97;;;3.07;;
5493;SDS011;2769;49.864;8.656;2022-08-23T05:16:09;5.87;;;3.00;;
5493;SDS011;2769;49.864;8.656;2022-08-23T05:18:57;4.33;;;2.40;;
5493;SDS011;2769;49.864;8.656;2022-08-23T05:21:43;4.37;;;3.03;;
5493;SDS011;2769;49.864;8.656;2022-08-23T05:24:30;2.50;;;2.30;;
5493;SDS011;2769;49.864;8.656;2022-08-23T05:27:16;5.23;;;2.40;;
5493;SDS011;2769;49.864;8.656;2022-08-23T05:30:03;9.63;;;3.17;;
5493;SDS011;2769;49.864;8.656;2022-08-23T05:32:58;4.87;;;3.03;;
5493;SDS011;2769;49.864;8.656;2022-08-23T05:35:47;8.30;;;3.00;;
5493;SDS011;2769;49.864;8.656;2022-08-23T05:38:34;2.97;;;2.73;;
5493;SDS011;2769;49.864;8.656;2022-08-23T05:41:22;6.70;;;2.73;;
5493;SDS011;2769;49.864;8.656;2022-08-23T05:44:22;3.30;;;2.80;;
5493;SDS011;2769;49.864;8.656;2022-08-23T05:47:09;4.40;;;3.30;;
5493;SDS011;2769;49.864;8.656;2022-08-23T05:49:59;8.10;;;2.90;;
5493;SDS011;2769;49.864;8.656;2022-08-23T05:52:47;4.03;;;2.63;;
5493;SDS011;2769;49.864;8.656;2022-08-23T05:55:35;3.00;;;2.77;;
5493;SDS011;2769;49.864;8.656;2022-08-23T05:58:21;7.47;;;3.10;;
5493;SDS011;2769;49.864;8.656;2022-08-23T06:01:08;8.30;;;3.07;;
5493;SDS011;2769;49.864;8.656;2022-08-23T06:03:57;12.93;;;3.10;;
5493;SDS011;2769;49.864;8.656;2022-08-23T06:06:44;4.83;;;2.60;;
5493;SDS011;2769;49.864;8.656;2022-08-23T06:09:33;12.67;;;3.10;;
5493;SDS011;2769;49.864;8.656;2022-08-23T06:12:20;10.47;;;3.17;;
5493;SDS011;2769;49.864;8.656;2022-08-23T06:15:07;7.07;;;2.67;;
5493;SDS011;2769;49.864;8.656;2022-08-23T06:17:54;4.47;;;3.53;;
5493;SDS011;2769;49.864;8.656;2022-08-23T06:20:40;7.33;;;3.03;;
5493;SDS011;2769;49.864;8.656;2022-08-23T06:23:27;8.97;;;3.20;;
5493;SDS011;2769;49.864;8.656;2022-08-23T06:26:17;9.70;;;3.10;;
5493;SDS011;2769;49.864;8.656;2022-08-23T06:29:06;15.87;;;3.10;;
5493;SDS011;2769;49.864;8.656;2022-08-23T06:31:55;15.50;;;3.40;;
5493;SDS011;2769;49.864;8.656;2022-08-23T06:34:41;9.27;;;3.37;;
5493;SDS011;2769;49.864;8.656;2022-08-23T06:37:55;6.10;;;2.93;;
5493;SDS011;2769;49.864;8.656;2022-08-23T06:40:42;3.20;;;2.90;;
5493;SDS011;2769;49.864;8.656;2022-08-23T06:43:30;9.53;;;2.87;;
5493;SDS011;2769;49.864;8.656;2022-08-23T06:46:18;4.20;;;3.17;;
5493;SDS011;2769;49.864;8.656;2022-08-23T06:49:07;6.57;;;3.10;;
5493;SDS011;2769;49.864;8.656;2022-08-23T06:51:54;5.27;;;2.67;;
5493;SDS011;2769;49.864;8.656;2022-08-23T06:54:44;7.30;;;2.83;;
5493;SDS011;2769;49.864;8.656;2022-08-23T06:57:31;4.03;;;2.90;;
5493;SDS011;2769;49.864;8.656;2022-08-23T07:00:19;7.13;;;3.13;;
5493;SDS011;2769;49.864;8.656;2022-08-23T07:03:06;7.37;;;2.87;;
5493;SDS011;2769;49.864;8.656;2022-08-23T07:05:53;6.17;;;2.83;;
5493;SDS011;2769;49.864;8.656;2022-08-23T07:08:40;14.13;;;3.17;;
5493;SDS011;2769;49.864;8.656;2022-08-23T07:11:27;5.50;;;2.90;;
5493;SDS011;2769;49.864;8.656;2022-08-23T07:14:15;4.10;;;2.80;;
5493;SDS011;2769;49.864;8.656;2022-08-23T07:17:04;5.00;;;2.93;;
5493;SDS011;2769;49.864;8.656;2022-08-23T07:19:53;6.00;;;3.03;;
5493;SDS011;2769;49.864;8.656;2022-08-23T07:22:40;7.03;;;3.10;;
5493;SDS011;2769;49.864;8.656;2022-08-23T07:25:28;5.70;;;2.67;;
5493;SDS011;2769;49.864;8.656;2022-08-23T07:28:15;3.27;;;3.00;;
5493;SDS011;2769;49.864;8.656;2022-08-23T07:31:05;4.70;;;2.83;;
5493;SDS011;2769;49.864;8.656;2022-08-23T07:34:00;6.20;;;3.33;;
5493;SDS011;2769;49.864;8.656;2022-08-23T07:36:49;8.30;;;2.77;;
5493;SDS011;2769;49.864;8.656;2022-08-23T07:39:37;5.57;;;2.97;;
5493;SDS011;2769;49.864;8.656;2022-08-23T07:42:24;4.93;;;3.07;;
5493;SDS011;2769;49.864;8.656;2022-08-23T07:45:11;17.17;;;3.30;;
5493;SDS011;2769;49.864;8.656;2022-08-23T07:47:59;4.23;;;2.80;;
5493;SDS011;2769;49.864;8.656;2022-08-23T07:50:51;5.17;;;2.73;;
5493;SDS011;2769;49.864;8.656;2022-08-23T07:53:42;3.53;;;3.10;;
5493;SDS011;2769;49.864;8.656;2022-08-23T07:56:30;6.93;;;3.07;;
5493;SDS011;2769;49.864;8.656;2022-08-23T07:59:16;5.00;;;2.90;;
5493;SDS011;2769;49.864;8.656;2022-08-23T08:02:03;9.67;;;2.80;;
5493;SDS011;2769;49.864;8.656;2022-08-23T08:04:50;11.60;;;2.90;;
5493;SDS011;2769;49.864;8.656;2022-08-23T08:07:38;6.23;;;2.87;;
5493;SDS011;2769;49.864;8.656;2022-08-23T08:10:31;2.20;;;2.00;;
5493;SDS011;2769;49.864;8.656;2022-08-23T08:13:19;3.33;;;2.70;;
5493;SDS011;2769;49.864;8.656;2022-08-23T08:16:06;3.53;;;2.53;;
5493;SDS011;2769;49.864;8.656;2022-08-23T08:18:54;3.20;;;2.20;;
5493;SDS011;2769;49.864;8.656;2022-08-23T08:21:43;5.90;;;2.83;;
5493;SDS011;2769;49.864;8.656;2022-08-23T08:24:32;3.50;;;2.10;;
5493;SDS011;2769;49.864;8.656;2022-08-23T08:27:19;2.37;;;2.17;;
5493;SDS011;2769;49.864;8.656;2022-08-23T08:30:06;2.63;;;2.43;;
5493;SDS011;2769;49.864;8.656;2022-08-23T08:32:55;3.60;;;2.10;;
5493;SDS011;2769;49.864;8.656;2022-08-23T08:35:45;3.03;;;2.20;;
5493;SDS011;2769;49.864;8.656;2022-08-23T08:38:44;3.80;;;2.50;;
5493;SDS011;2769;49.864;8.656;2022-08-23T08:41:39;3.23;;;2.17;;
5493;SDS011;2769;49.864;8.656;2022-08-23T08:44:47;10.53;;;2.80;;
5493;SDS011;2769;49.864;8.656;2022-08-23T08:47:39;2.80;;;2.23;;
5493;SDS011;2769;49.864;8.656;2022-08-23T08:50:33;3.20;;;2.00;;
5493;SDS011;2769;49.864;8.656;2022-08-23T08:53:25;2.90;;;2.40;;
5493;SDS011;2769;49.864;8.656;2022-08-23T08:56:17;4.27;;;2.43;;
5493;SDS011;2769;49.864;8.656;2022-08-23T08:59:10;4.00;;;2.40;;
5493;SDS011;2769;49.864;8.656;2022-08-23T09:02:04;2.40;;;2.00;;
5493;SDS011;2769;49.864;8.656;2022-08-23T09:05:17;5.97;;;2.23;;
5493;SDS011;2769;49.864;8.656;2022-08-23T09:08:10;2.30;;;2.03;;
5493;SDS011;2769;49.864;8.656;2022-08-23T09:11:20;4.73;;;2.50;;
5493;SDS011;2769;49.864;8.656;2022-08-23T09:14:22;2.57;;;2.33;;
5493;SDS011;2769;49.864;8.656;2022-08-23T09:17:30;5.53;;;2.10;;
5493;SDS011;2769;49.864;8.656;2022-08-23T09:20:25;3.80;;;2.40;;
5493;SDS011;2769;49.864;8.656;2022-08-23T09:23:19;2.00;;;1.90;;
5493;SDS011;2769;49.864;8.656;2022-08-23T09:26:20;2.60;;;2.20;;
5493;SDS011;2769;49.864;8.656;2022-08-23T09:29:13;3.43;;;2.03;;
5493;SDS011;2769;49.864;8.656;2022-08-23T09:32:06;2.20;;;2.10;;
5493;SDS011;2769;49.864;8.656;2022-08-23T09:35:13;6.10;;;2.10;;
5493;SDS011;2769;49.864;8.656;2022-08-23T09:38:02;3.67;;;2.25;;
5493;SDS011;2769;49.864;8.656;2022-08-23T09:41:00;4.53;;;2.10;;
5493;SDS011;2769;49.864;8.656;2022-08-23T09:44:02;3.15;;;1.67;;
5493;SDS011;2769;49.864;8.656;2022-08-23T09:46:55;4.43;;;1.85;;
5493;SDS011;2769;49.864;8.656;2022-08-23T09:49:52;2.60;;;2.00;;
5493;SDS011;2769;49.864;8.656;2022-08-23T09:52:38;2.30;;;2.10;;
5493;SDS011;2769;49.864;8.656;2022-08-23T09:55:28;2.22;;;2.03;;
5493;SDS011;2769;49.864;8.656;2022-08-23T09:58:22;2.38;;;2.17;;
5493;SDS011;2769;49.864;8.656;2022-08-23T10:01:17;2.85;;;1.73;;
5493;SDS011;2769;49.864;8.656;2022-08-23T10:04:09;3.85;;;2.00;;
5493;SDS011;2769;49.864;8.656;2022-08-23T10:06:58;3.25;;;2.08;;
5493;SDS011;2769;49.864;8.656;2022-08-23T10:09:46;2.25;;;2.05;;
5493;SDS011;2769;49.864;8.656;2022-08-23T10:12:32;3.55;;;1.98;;
5493;SDS011;2769;49.864;8.656;2022-08-23T10:15:19;2.15;;;1.90;;
5493;SDS011;2769;49.864;8.656;2022-08-23T10:18:13;1.63;;;1.52;;
5493;SDS011;2769;49.864;8.656;2022-08-23T10:21:16;2.63;;;1.80;;
5493;SDS011;2769;49.864;8.656;2022-08-23T10:24:15;2.33;;;1.67;;
5493;SDS011;2769;49.864;8.656;2022-08-23T10:27:14;2.05;;;1.85;;
5493;SDS011;2769;49.864;8.656;2022-08-23T10:30:35;3.72;;;1.65;;
5493;SDS011;2769;49.864;8.656;2022-08-23T10:33:29;2.33;;;1.90;;
5493;SDS011;2769;49.864;8.656;2022-08-23T10:36:30;2.97;;;2.03;;
5493;SDS011;2769;49.864;8.656;2022-08-23T10:39:25;2.15;;;1.92;;
5493;SDS011;2769;49.864;8.656;2022-08-23T10:42:16;3.15;;;1.92;;
5493;SDS011;2769;49.864;8.656;2022-08-23T10:45:19;2.33;;;1.60;;
5493;SDS011;2769;49.864;8.656;2022-08-23T10:48:14;3.45;;;1.95;;
5493;SDS011;2769;49.864;8.656;2022-08-23T10:51:12;2.63;;;1.90;;
5493;SDS011;2769;49.864;8.656;2022-08-23T10:54:16;2.63;;;1.95;;
5493;SDS011;2769;49.864;8.656;2022-08-23T10:57:16;4.72;;;1.98;;
5493;SDS011;2769;49.864;8.656;2022-08-23T11:00:04;1.98;;;1.88;;
5493;SDS011;2769;49.864;8.656;2022-08-23T11:02:54;3.42;;;1.98;;
5493;SDS011;2769;49.864;8.656;2022-08-23T11:09:10;3.08;;;2.10;;
5493;SDS011;2769;49.864;8.656;2022-08-23T11:12:21;3.95;;;1.95;;
5493;SDS011;2769;49.864;8.656;2022-08-23T11:15:17;2.38;;;2.05;;
5493;SDS011;2769;49.864;8.656;2022-08-23T11:18:10;2.47;;;2.20;;
5493;SDS011;2769;49.864;8.656;2022-08-23T11:21:39;2.38;;;2.28;;
5493;SDS011;2769;49.864;8.656;2022-08-23T11:24:31;3.78;;;2.40;;
5493;SDS011;2769;49.864;8.656;2022-08-23T11:27:38;5.85;;;2.10;;
5493;SDS011;2769;49.864;8.656;2022-08-23T11:30:43;3.75;;;2.00;;
5493;SDS011;2769;49.864;8.656;2022-08-23T11:33:32;3.88;;;2.25;;
5493;SDS011;2769;49.864;8.656;2022-08-23T11:36:22;6.15;;;2.00;;
5493;SDS011;2769;49.864;8.656;2022-08-23T11:39:10;3.55;;;2.00;;
5493;SDS011;2769;49.864;8.656;2022-08-23T11:42:09;4.88;;;2.25;;
5493;SDS011;2769;49.864;8.656;2022-08-23T11:44:57;1.98;;;1.88;;
5493;SDS011;2769;49.864;8.656;2022-08-23T11:47:45;3.05;;;2.03;;
5493;SDS011;2769;49.864;8.656;2022-08-23T11:50:38;2.80;;;2.60;;
5493;SDS011;2769;49.864;8.656;2022-08-23T11:53:45;3.40;;;2.20;;
5493;SDS011;2769;49.864;8.656;2022-08-23T11:56:51;3.78;;;2.30;;
5493;SDS011;2769;49.864;8.656;2022-08-23T11:59:54;3.28;;;1.85;;
5493;SDS011;2769;49.864;8.656;2022-08-23T12:03:02;3.58;;;2.03;;
5493;SDS011;2769;49.864;8.656;2022-08-23T12:06:06;2.00;;;1.80;;
5493;SDS011;2769;49.864;8.656;2022-08-23T12:08:57;4.80;;;1.75;;
5493;SDS011;2769;49.864;8.656;2022-08-23T12:12:08;1.80;;;1.80;;
5493;SDS011;2769;49.864;8.656;2022-08-23T12:14:57;1.75;;;1.65;;
5493;SDS011;2769;49.864;8.656;2022-08-23T12:18:05;2.42;;;1.70;;
5493;SDS011;2769;49.864;8.656;2022-08-23T12:20:58;3.38;;;2.00;;
5493;SDS011;2769;49.864;8.656;2022-08-23T12:23:48;2.33;;;2.17;;
5493;SDS011;2769;49.864;8.656;2022-08-23T12:26:38;2.17;;;2.03;;
5493;SDS011;2769;49.864;8.656;2022-08-23T12:29:37;2.10;;;2.00;;
5493;SDS011;2769;49.864;8.656;2022-08-23T12:32:40;2.05;;;1.95;;
5493;SDS011;2769;49.864;8.656;2022-08-23T12:35:37;3.13;;;2.10;;
5493;SDS011;2769;49.864;8.656;2022-08-23T12:38:33;2.30;;;2.20;;
5493;SDS011;2769;49.864;8.656;2022-08-23T12:41:29;2.60;;;2.40;;
5493;SDS011;2769;49.864;8.656;2022-08-23T12:44:17;5.75;;;2.70;;
5493;SDS011;2769;49.864;8.656;2022-08-23T12:47:10;3.20;;;2.83;;
5493;SDS011;2769;49.864;8.656;2022-08-23T12:50:00;4.13;;;2.33;;
5493;SDS011;2769;49.864;8.656;2022-08-23T12:52:58;2.67;;;2.40;;
5493;SDS011;2769;49.864;8.656;2022-08-23T12:55:47;4.53;;;2.20;;
5493;SDS011;2769;49.864;8.656;2022-08-23T12:58:36;2.17;;;1.95;;
5493;SDS011;2769;49.864;8.656;2022-08-23T13:01:24;7.60;;;2.20;;
5493;SDS011;2769;49.864;8.656;2022-08-23T13:04:14;3.17;;;2.10;;
5493;SDS011;2769;49.864;8.656;2022-08-23T13:07:02;2.20;;;2.00;;
5493;SDS011;2769;49.864;8.656;2022-08-23T13:09:51;2.10;;;2.00;;
5493;SDS011;2769;49.864;8.656;2022-08-23T13:12:40;2.55;;;2.30;;
5493;SDS011;2769;49.864;8.656;2022-08-23T13:15:44;2.55;;;2.22;;
5493;SDS011;2769;49.864;8.656;2022-08-23T13:18:39;3.80;;;2.47;;
5493;SDS011;2769;49.864;8.656;2022-08-23T13:21:29;4.60;;;2.20;;
5493;SDS011;2769;49.864;8.656;2022-08-23T13:24:29;3.83;;;2.47;;
5493;SDS011;2769;49.864;8.656;2022-08-23T13:27:25;4.60;;;2.63;;
5493;SDS011;2769;49.864;8.656;2022-08-23T13:30:23;2.92;;;2.70;;
5493;SDS011;2769;49.864;8.656;2022-08-23T13:33:18;2.80;;;2.50;;
5493;SDS011;2769;49.864;8.656;2022-08-23T13:36:07;2.43;;;2.20;;
5493;SDS011;2769;49.864;8.656;2022-08-23T13:39:00;2.40;;;2.30;;
5493;SDS011;2769;49.864;8.656;2022-08-23T13:41:50;3.60;;;2.73;;
5493;SDS011;2769;49.864;8.656;2022-08-23T13:44:37;5.97;;;2.77;;
5493;SDS011;2769;49.864;8.656;2022-08-23T13:47:25;6.50;;;3.10;;
5493;SDS011;2769;49.864;8.656;2022-08-23T13:50:13;3.10;;;2.90;;
5493;SDS011;2769;49.864;8.656;2022-08-23T13:53:02;3.00;;;2.80;;
5493;SDS011;2769;49.864;8.656;2022-08-23T13:56:04;2.40;;;2.30;;
5493;SDS011;2769;49.864;8.656;2022-08-23T13:58:51;8.87;;;3.00;;
5493;SDS011;2769;49.864;8.656;2022-08-23T14:01:42;2.40;;;2.20;;
5493;SDS011;2769;49.864;8.656;2022-08-23T14:04:29;2.70;;;2.50;;
5493;SDS011;2769;49.864;8.656;2022-08-23T14:07:16;2.88;;;1.85;;
5493;SDS011;2769;49.864;8.656;2022-08-23T14:10:02;3.75;;;2.17;;
5493;SDS011;2769;49.864;8.656;2022-08-23T14:12:50;2.53;;;2.30;;
5493;SDS011;2769;49.864;8.656;2022-08-23T14:15:39;2.42;;;2.33;;
5493;SDS011;2769;49.864;8.656;2022-08-23T14:18:48;2.63;;;2.20;;
5493;SDS011;2769;49.864;8.656;2022-08-23T14:21:55;3.90;;;2.60;;
5493;SDS011;2769;49.864;8.656;2022-08-23T14:24:41;7.63;;;2.53;;
5493;SDS011;2769;49.864;8.656;2022-08-23T14:27:29;4.30;;;2.60;;
5493;SDS011;2769;49.864;8.656;2022-08-23T14:30:21;4.20;;;2.60;;
5493;SDS011;2769;49.864;8.656;2022-08-23T14:33:13;3.07;;;2.60;;
5493;SDS011;2769;49.864;8.656;2022-08-23T14:36:01;4.20;;;2.67;;
5493;SDS011;2769;49.864;8.656;2022-08-23T14:38:49;2.67;;;2.40;;
5493;SDS011;2769;49.864;8.656;2022-08-23T14:41:36;3.30;;;2.70;;
5493;SDS011;2769;49.864;8.656;2022-08-23T14:44:22;2.33;;;2.22;;
5493;SDS011;2769;49.864;8.656;2022-08-23T14:47:17;2.55;;;2.08;;
5493;SDS011;2769;49.864;8.656;2022-08-23T14:50:05;2.53;;;2.15;;
5493;SDS011;2769;49.864;8.656;2022-08-23T14:52:55;2.40;;;2.20;;
5493;SDS011;2769;49.864;8.656;2022-08-23T14:55:42;2.20;;;2.00;;
5493;SDS011;2769;49.864;8.656;2022-08-23T14:58:29;2.28;;;2.13;;
5493;SDS011;2769;49.864;8.656;2022-08-23T15:01:16;4.28;;;1.90;;
5493;SDS011;2769;49.864;8.656;2022-08-23T15:04:03;6.35;;;2.30;;
5493;SDS011;2769;49.864;8.656;2022-08-23T15:06:50;2.67;;;2.42;;
5493;SDS011;2769;49.864;8.656;2022-08-23T15:10:00;4.03;;;2.80;;
5493;SDS011;2769;49.864;8.656;2022-08-23T15:12:47;4.70;;;2.67;;
5493;SDS011;2769;49.864;8.656;2022-08-23T15:15:54;4.53;;;2.20;;
5493;SDS011;2769;49.864;8.656;2022-08-23T15:18:42;4.10;;;2.63;;
5493;SDS011;2769;49.864;8.656;2022-08-23T15:21:31;5.53;;;2.80;;
5493;SDS011;2769;49.864;8.656;2022-08-23T15:24:18;3.10;;;2.60;;
5493;SDS011;2769;49.864;8.656;2022-08-23T15:27:06;11.13;;;2.93;;
5493;SDS011;2769;49.864;8.656;2022-08-23T15:29:53;3.43;;;2.57;;
5493;SDS011;2769;49.864;8.656;2022-08-23T15:32:39;7.43;;;2.90;;
5493;SDS011;2769;49.864;8.656;2022-08-23T15:35:37;3.17;;;2.63;;
5493;SDS011;2769;49.864;8.656;2022-08-23T15:38:25;5.13;;;2.93;;
5493;SDS011;2769;49.864;8.656;2022-08-23T15:41:13;3.20;;;2.97;;
5493;SDS011;2769;49.864;8.656;2022-08-23T15:44:02;4.53;;;2.43;;
5493;SDS011;2769;49.864;8.656;2022-08-23T15:46:48;3.57;;;2.47;;
5493;SDS011;2769;49.864;8.656;2022-08-23T15:49:36;5.57;;;2.77;;
5493;SDS011;2769;49.864;8.656;2022-08-23T15:52:22;4.30;;;2.80;;
5493;SDS011;2769;49.864;8.656;2022-08-23T15:55:11;5.30;;;2.80;;
5493;SDS011;2769;49.864;8.656;2022-08-23T15:57:58;10.97;;;3.30;;
5493;SDS011;2769;49.864;8.656;2022-08-23T16:00:46;5.20;;;2.63;;
5493;SDS011;2769;49.864;8.656;2022-08-23T16:03:34;3.80;;;2.87;;
5493;SDS011;2769;49.864;8.656;2022-08-23T16:06:22;4.00;;;2.90;;
5493;SDS011;2769;49.864;8.656;2022-08-23T16:09:10;3.50;;;2.67;;
5493;SDS011;2769;49.864;8.656;2022-08-23T16:12:00;3.03;;;2.63;;
5493;SDS011;2769;49.864;8.656;2022-08-23T16:14:47;6.53;;;3.17;;
5493;SDS011;2769;49.864;8.656;2022-08-23T16:17:35;3.03;;;2.73;;
5493;SDS011;2769;49.864;8.656;2022-08-23T16:20:23;4.87;;;2.77;;
5493;SDS011;2769;49.864;8.656;2022-08-23T16:23:10;4.10;;;2.93;;
5493;SDS011;2769;49.864;8.656;2022-08-23T16:25:57;3.00;;;2.60;;
5493;SDS011;2769;49.864;8.656;2022-08-23T16:28:46;6.10;;;3.23;;
5493;SDS011;2769;49.864;8.656;2022-08-23T16:31:34;3.63;;;3.43;;
5493;SDS011;2769;49.864;8.656;2022-08-23T16:34:24;5.50;;;2.60;;
5493;SDS011;2769;49.864;8.656;2022-08-23T16:37:11;3.50;;;2.63;;
5493;SDS011;2769;49.864;8.656;2022-08-23T16:39:58;3.93;;;3.13;;
5493;SDS011;2769;49.864;8.656;2022-08-23T16:42:45;4.80;;;3.50;;
5493;SDS011;2769;49.864;8.656;2022-08-23T16:45:32;2.87;;;2.57;;
5493;SDS011;2769;49.864;8.656;2022-08-23T16:48:19;3.20;;;2.90;;
5493;SDS011;2769;49.864;8.656;2022-08-23T16:51:07;5.20;;;3.17;;
5493;SDS011;2769;49.864;8.656;2022-08-23T16:53:53;7.23;;;2.83;;
5493;SDS011;2769;49.864;8.656;2022-08-23T16:56:47;4.60;;;2.60;;
5493;SDS011;2769;49.864;8.656;2022-08-23T16:59:33;3.57;;;3.13;;
5493;SDS011;2769;49.864;8.656;2022-08-23T17:02:26;3.03;;;2.73;;
5493;SDS011;2769;49.864;8.656;2022-08-23T17:05:15;5.67;;;3.00;;
5493;SDS011;2769;49.864;8.656;2022-08-23T17:08:04;9.80;;;3.63;;
5493;SDS011;2769;49.864;8.656;2022-08-23T17:10:51;3.20;;;2.90;;
5493;SDS011;2769;49.864;8.656;2022-08-23T17:13:37;4.80;;;2.90;;
5493;SDS011;2769;49.864;8.656;2022-08-23T17:16:24;6.00;;;3.10;;
5493;SDS011;2769;49.864;8.656;2022-08-23T17:19:11;5.40;;;2.93;;
5493;SDS011;2769;49.864;8.656;2022-08-23T17:21:59;9.10;;;3.10;;
5493;SDS011;2769;49.864;8.656;2022-08-23T17:24:47;10.57;;;3.13;;
5493;SDS011;2769;49.864;8.656;2022-08-23T17:27:37;5.17;;;2.87;;
5493;SDS011;2769;49.864;8.656;2022-08-23T17:30:30;6.00;;;3.10;;
5493;SDS011;2769;49.864;8.656;2022-08-23T17:33:16;4.60;;;2.80;;
5493;SDS011;2769;49.864;8.656;2022-08-23T17:36:03;3.30;;;3.00;;
5493;SDS011;2769;49.864;8.656;2022-08-23T17:38:50;2.90;;;2.70;;
5493;SDS011;2769;49.864;8.656;2022-08-23T17:41:38;2.70;;;2.60;;
5493;SDS011;2769;49.864;8.656;2022-08-23T17:44:29;7.00;;;3.40;;